sensor_id;sensor_type;location;lat;lon;timestamp;P1;durP1;ratioP1;P2;durP2;ratioP2
69856;SDS011;57147;53.582;10.112;2022-11-15T00:01:46;31.10;;;16.85;;
69856;SDS011;57147;53.582;10.112;2022-11-15T00:06:46;30.85;;;18.23;;
69856;SDS011;57147;53.582;10.112;2022-11-15T00:11:49;29.95;;;16.88;;
69856;SDS011;57147;53.582;10.112;2022-11-15T00:16:51;32.53;;;16.90;;
69856;SDS011;57147;53.582;10.112;2022-11-15T00:21:51;31.10;;;16.60;;
69856;SDS011;57147;53.582;10.112;2022-11-15T00:26:55;29.38;;;16.30;;
69856;SDS011;57147;53.582;10.112;2022-11-15T00:31:55;30.60;;;17.40;;
69856;SDS011;57147;53.582;10.112;2022-11-15T00:36:56;31.98;;;17.27;;
69856;SDS011;57147;53.582;10.112;2022-11-15T00:41:59;29.13;;;17.15;;
69856;SDS011;57147;53.582;10.112;2022-11-15T00:46:59;27.77;;;15.77;;
69856;SDS011;57147;53.582;10.112;2022-11-15T00:52:00;28.48;;;16.33;;
69856;SDS011;57147;53.582;10.112;2022-11-15T00:57:03;30.75;;;15.93;;
69856;SDS011;57147;53.582;10.112;2022-11-15T01:02:03;29.35;;;15.90;;
69856;SDS011;57147;53.582;10.112;2022-11-15T01:07:04;28.13;;;15.52;;
69856;SDS011;57147;53.582;10.112;2022-11-15T01:12:08;30.23;;;16.08;;
69856;SDS011;57147;53.582;10.112;2022-11-15T01:17:08;28.63;;;16.50;;
69856;SDS011;57147;53.582;10.112;2022-11-15T01:22:09;31.98;;;21.15;;
69856;SDS011;57147;53.582;10.112;2022-11-15T01:27:12;29.77;;;16.10;;
69856;SDS011;57147;53.582;10.112;2022-11-15T01:32:12;27.67;;;14.88;;
69856;SDS011;57147;53.582;10.112;2022-11-15T01:37:13;27.98;;;15.93;;
69856;SDS011;57147;53.582;10.112;2022-11-15T01:42:16;27.10;;;14.43;;
69856;SDS011;57147;53.582;10.112;2022-11-15T01:47:18;26.40;;;15.63;;
69856;SDS011;57147;53.582;10.112;2022-11-15T01:52:22;26.00;;;14.80;;
69856;SDS011;57147;53.582;10.112;2022-11-15T01:57:28;27.17;;;15.10;;
69856;SDS011;57147;53.582;10.112;2022-11-15T02:02:28;26.42;;;14.68;;
69856;SDS011;57147;53.582;10.112;2022-11-15T02:07:29;26.08;;;14.63;;
69856;SDS011;57147;53.582;10.112;2022-11-15T02:12:34;26.88;;;15.63;;
69856;SDS011;57147;53.582;10.112;2022-11-15T02:17:40;28.20;;;14.50;;
69856;SDS011;57147;53.582;10.112;2022-11-15T02:22:55;24.17;;;14.60;;
69856;SDS011;57147;53.582;10.112;2022-11-15T02:33:46;27.73;;;14.82;;
69856;SDS011;57147;53.582;10.112;2022-11-15T02:38:54;24.80;;;14.20;;
69856;SDS011;57147;53.582;10.112;2022-11-15T02:44:00;25.50;;;13.70;;
69856;SDS011;57147;53.582;10.112;2022-11-15T02:49:06;23.75;;;12.93;;
69856;SDS011;57147;53.582;10.112;2022-11-15T02:54:06;24.23;;;14.02;;
69856;SDS011;57147;53.582;10.112;2022-11-15T02:59:11;24.02;;;14.20;;
69856;SDS011;57147;53.582;10.112;2022-11-15T03:04:26;23.25;;;14.50;;
69856;SDS011;57147;53.582;10.112;2022-11-15T03:09:37;23.90;;;13.35;;
69856;SDS011;57147;53.582;10.112;2022-11-15T03:14:43;23.30;;;13.00;;
69856;SDS011;57147;53.582;10.112;2022-11-15T03:19:56;23.73;;;13.07;;
69856;SDS011;57147;53.582;10.112;2022-11-15T03:25:00;22.50;;;13.48;;
69856;SDS011;57147;53.582;10.112;2022-11-15T03:30:04;24.52;;;14.98;;
69856;SDS011;57147;53.582;10.112;2022-11-15T03:35:11;21.50;;;12.70;;
69856;SDS011;57147;53.582;10.112;2022-11-15T03:40:13;21.27;;;12.32;;
69856;SDS011;57147;53.582;10.112;2022-11-15T03:45:16;20.63;;;12.40;;
69856;SDS011;57147;53.582;10.112;2022-11-15T03:50:22;19.13;;;11.70;;
69856;SDS011;57147;53.582;10.112;2022-11-15T03:55:24;22.77;;;13.00;;
69856;SDS011;57147;53.582;10.112;2022-11-15T04:00:25;21.23;;;11.90;;
69856;SDS011;57147;53.582;10.112;2022-11-15T04:05:28;20.95;;;12.35;;
69856;SDS011;57147;53.582;10.112;2022-11-15T04:10:29;20.52;;;12.18;;
69856;SDS011;57147;53.582;10.112;2022-11-15T04:15:29;21.45;;;12.13;;
69856;SDS011;57147;53.582;10.112;2022-11-15T04:20:32;20.50;;;11.65;;
69856;SDS011;57147;53.582;10.112;2022-11-15T04:25:33;22.77;;;12.98;;
69856;SDS011;57147;53.582;10.112;2022-11-15T04:30:33;18.58;;;11.48;;
69856;SDS011;57147;53.582;10.112;2022-11-15T04:35:37;17.13;;;10.40;;
69856;SDS011;57147;53.582;10.112;2022-11-15T04:40:37;20.67;;;12.07;;
69856;SDS011;57147;53.582;10.112;2022-11-15T04:45:38;22.15;;;12.10;;
69856;SDS011;57147;53.582;10.112;2022-11-15T04:50:41;19.50;;;12.35;;
69856;SDS011;57147;53.582;10.112;2022-11-15T04:55:44;18.13;;;10.85;;
69856;SDS011;57147;53.582;10.112;2022-11-15T05:00:44;20.58;;;11.18;;
69856;SDS011;57147;53.582;10.112;2022-11-15T05:05:47;21.48;;;12.13;;
69856;SDS011;57147;53.582;10.112;2022-11-15T05:10:48;20.42;;;11.90;;
69856;SDS011;57147;53.582;10.112;2022-11-15T05:15:48;18.48;;;10.73;;
69856;SDS011;57147;53.582;10.112;2022-11-15T05:20:52;21.75;;;12.05;;
69856;SDS011;57147;53.582;10.112;2022-11-15T05:25:52;17.88;;;10.70;;
69856;SDS011;57147;53.582;10.112;2022-11-15T05:30:53;18.52;;;12.63;;
69856;SDS011;57147;53.582;10.112;2022-11-15T05:36:02;21.77;;;12.57;;
69856;SDS011;57147;53.582;10.112;2022-11-15T05:41:06;20.02;;;11.38;;
69856;SDS011;57147;53.582;10.112;2022-11-15T05:46:07;21.35;;;12.20;;
69856;SDS011;57147;53.582;10.112;2022-11-15T05:51:11;20.40;;;12.23;;
69856;SDS011;57147;53.582;10.112;2022-11-15T05:56:14;19.30;;;10.77;;
69856;SDS011;57147;53.582;10.112;2022-11-15T06:01:15;20.05;;;11.63;;
69856;SDS011;57147;53.582;10.112;2022-11-15T06:06:18;21.92;;;11.65;;
69856;SDS011;57147;53.582;10.112;2022-11-15T06:11:19;18.10;;;11.00;;
69856;SDS011;57147;53.582;10.112;2022-11-15T06:16:19;19.73;;;11.70;;
69856;SDS011;57147;53.582;10.112;2022-11-15T06:21:23;22.65;;;11.80;;
69856;SDS011;57147;53.582;10.112;2022-11-15T06:26:23;20.42;;;12.35;;
69856;SDS011;57147;53.582;10.112;2022-11-15T06:31:24;21.08;;;12.10;;
69856;SDS011;57147;53.582;10.112;2022-11-15T06:36:27;20.30;;;12.63;;
69856;SDS011;57147;53.582;10.112;2022-11-15T06:41:28;22.15;;;12.23;;
69856;SDS011;57147;53.582;10.112;2022-11-15T06:46:28;26.23;;;14.60;;
69856;SDS011;57147;53.582;10.112;2022-11-15T06:51:32;23.45;;;17.33;;
69856;SDS011;57147;53.582;10.112;2022-11-15T06:56:33;20.58;;;11.35;;
69856;SDS011;57147;53.582;10.112;2022-11-15T07:01:34;19.27;;;11.82;;
69856;SDS011;57147;53.582;10.112;2022-11-15T07:06:37;20.02;;;11.90;;
69856;SDS011;57147;53.582;10.112;2022-11-15T07:11:38;19.63;;;12.02;;
69856;SDS011;57147;53.582;10.112;2022-11-15T07:16:38;22.10;;;13.18;;
69856;SDS011;57147;53.582;10.112;2022-11-15T07:21:41;22.23;;;13.57;;
69856;SDS011;57147;53.582;10.112;2022-11-15T07:26:42;20.90;;;12.38;;
69856;SDS011;57147;53.582;10.112;2022-11-15T07:31:43;21.02;;;11.85;;
69856;SDS011;57147;53.582;10.112;2022-11-15T07:36:46;19.90;;;13.10;;
69856;SDS011;57147;53.582;10.112;2022-11-15T07:41:46;21.50;;;12.50;;
69856;SDS011;57147;53.582;10.112;2022-11-15T07:46:47;25.40;;;14.70;;
69856;SDS011;57147;53.582;10.112;2022-11-15T07:51:50;20.35;;;13.25;;
69856;SDS011;57147;53.582;10.112;2022-11-15T07:56:51;19.90;;;12.55;;
69856;SDS011;57147;53.582;10.112;2022-11-15T08:01:51;21.90;;;12.30;;
69856;SDS011;57147;53.582;10.112;2022-11-15T08:06:54;20.63;;;11.80;;
69856;SDS011;57147;53.582;10.112;2022-11-15T08:11:55;18.75;;;11.30;;
69856;SDS011;57147;53.582;10.112;2022-11-15T08:16:55;19.10;;;13.10;;
69856;SDS011;57147;53.582;10.112;2022-11-15T08:21:58;22.65;;;15.02;;
69856;SDS011;57147;53.582;10.112;2022-11-15T08:26:59;21.58;;;13.93;;
69856;SDS011;57147;53.582;10.112;2022-11-15T08:32:00;20.55;;;12.48;;
69856;SDS011;57147;53.582;10.112;2022-11-15T08:37:03;20.02;;;12.68;;
69856;SDS011;57147;53.582;10.112;2022-11-15T08:42:04;20.67;;;12.25;;
69856;SDS011;57147;53.582;10.112;2022-11-15T08:47:05;18.35;;;12.30;;
69856;SDS011;57147;53.582;10.112;2022-11-15T08:52:08;20.27;;;12.10;;
69856;SDS011;57147;53.582;10.112;2022-11-15T08:57:09;21.50;;;12.43;;
69856;SDS011;57147;53.582;10.112;2022-11-15T09:02:11;20.15;;;11.75;;
69856;SDS011;57147;53.582;10.112;2022-11-15T09:07:15;21.10;;;13.15;;
69856;SDS011;57147;53.582;10.112;2022-11-15T09:12:16;21.33;;;14.98;;
69856;SDS011;57147;53.582;10.112;2022-11-15T09:17:17;16.67;;;10.55;;
69856;SDS011;57147;53.582;10.112;2022-11-15T09:22:20;19.33;;;12.02;;
69856;SDS011;57147;53.582;10.112;2022-11-15T09:27:21;17.35;;;10.73;;
69856;SDS011;57147;53.582;10.112;2022-11-15T09:32:21;20.38;;;12.00;;
69856;SDS011;57147;53.582;10.112;2022-11-15T09:37:25;19.48;;;11.75;;
69856;SDS011;57147;53.582;10.112;2022-11-15T09:42:28;18.58;;;10.63;;
69856;SDS011;57147;53.582;10.112;2022-11-15T09:47:49;16.80;;;9.50;;
69856;SDS011;57147;53.582;10.112;2022-11-15T09:53:02;18.02;;;9.90;;
69856;SDS011;57147;53.582;10.112;2022-11-15T09:58:05;18.20;;;10.70;;
69856;SDS011;57147;53.582;10.112;2022-11-15T10:03:16;16.20;;;9.82;;
69856;SDS011;57147;53.582;10.112;2022-11-15T10:08:28;16.23;;;9.93;;
69856;SDS011;57147;53.582;10.112;2022-11-15T10:13:35;15.95;;;10.45;;
69856;SDS011;57147;53.582;10.112;2022-11-15T10:18:43;18.75;;;10.45;;
69856;SDS011;57147;53.582;10.112;2022-11-15T10:23:56;23.60;;;13.02;;
69856;SDS011;57147;53.582;10.112;2022-11-15T10:28:57;16.42;;;10.63;;
69856;SDS011;57147;53.582;10.112;2022-11-15T10:33:59;14.98;;;9.48;;
69856;SDS011;57147;53.582;10.112;2022-11-15T10:39:15;15.00;;;8.95;;
69856;SDS011;57147;53.582;10.112;2022-11-15T10:44:20;14.35;;;8.98;;
69856;SDS011;57147;53.582;10.112;2022-11-15T10:49:26;16.58;;;8.98;;
69856;SDS011;57147;53.582;10.112;2022-11-15T10:54:33;15.52;;;8.50;;
69856;SDS011;57147;53.582;10.112;2022-11-15T10:59:37;12.85;;;7.50;;
69856;SDS011;57147;53.582;10.112;2022-11-15T11:04:48;12.23;;;8.15;;
69856;SDS011;57147;53.582;10.112;2022-11-15T11:09:58;17.75;;;9.40;;
69856;SDS011;57147;53.582;10.112;2022-11-15T11:15:00;20.27;;;9.07;;
69856;SDS011;57147;53.582;10.112;2022-11-15T11:20:10;19.70;;;12.05;;
69856;SDS011;57147;53.582;10.112;2022-11-15T11:25:26;16.60;;;10.23;;
69856;SDS011;57147;53.582;10.112;2022-11-15T11:30:37;11.68;;;7.22;;
69856;SDS011;57147;53.582;10.112;2022-11-15T11:35:50;13.35;;;8.88;;
69856;SDS011;57147;53.582;10.112;2022-11-15T11:41:04;14.75;;;7.88;;
69856;SDS011;57147;53.582;10.112;2022-11-15T11:51:23;20.88;;;12.65;;
69856;SDS011;57147;53.582;10.112;2022-11-15T12:01:33;12.73;;;8.07;;
69856;SDS011;57147;53.582;10.112;2022-11-15T12:06:40;32.15;;;20.45;;
69856;SDS011;57147;53.582;10.112;2022-11-15T12:11:50;17.25;;;11.30;;
69856;SDS011;57147;53.582;10.112;2022-11-15T12:16:55;13.27;;;8.60;;
69856;SDS011;57147;53.582;10.112;2022-11-15T12:22:00;14.55;;;9.23;;
69856;SDS011;57147;53.582;10.112;2022-11-15T12:27:13;14.45;;;8.98;;
69856;SDS011;57147;53.582;10.112;2022-11-15T12:32:19;16.25;;;10.23;;
69856;SDS011;57147;53.582;10.112;2022-11-15T12:37:32;17.30;;;10.85;;
69856;SDS011;57147;53.582;10.112;2022-11-15T12:42:39;16.23;;;10.02;;
69856;SDS011;57147;53.582;10.112;2022-11-15T12:47:41;13.60;;;8.88;;
69856;SDS011;57147;53.582;10.112;2022-11-15T12:58:38;11.15;;;7.72;;
69856;SDS011;57147;53.582;10.112;2022-11-15T13:14:47;13.23;;;7.35;;
69856;SDS011;57147;53.582;10.112;2022-11-15T13:19:52;12.38;;;9.85;;
69856;SDS011;57147;53.582;10.112;2022-11-15T13:24:58;13.50;;;7.32;;
69856;SDS011;57147;53.582;10.112;2022-11-15T13:30:03;12.23;;;7.90;;
69856;SDS011;57147;53.582;10.112;2022-11-15T13:35:06;16.05;;;10.57;;
69856;SDS011;57147;53.582;10.112;2022-11-15T13:40:15;13.82;;;7.25;;
69856;SDS011;57147;53.582;10.112;2022-11-15T13:45:23;9.63;;;6.72;;
69856;SDS011;57147;53.582;10.112;2022-11-15T13:50:27;11.93;;;6.80;;
69856;SDS011;57147;53.582;10.112;2022-11-15T13:55:33;13.50;;;9.77;;
69856;SDS011;57147;53.582;10.112;2022-11-15T14:00:38;14.70;;;9.55;;
69856;SDS011;57147;53.582;10.112;2022-11-15T14:05:40;12.75;;;9.02;;
69856;SDS011;57147;53.582;10.112;2022-11-15T14:10:41;15.88;;;10.23;;
69856;SDS011;57147;53.582;10.112;2022-11-15T14:15:44;19.05;;;14.85;;
69856;SDS011;57147;53.582;10.112;2022-11-15T14:20:45;14.07;;;8.13;;
69856;SDS011;57147;53.582;10.112;2022-11-15T14:25:51;11.68;;;8.02;;
69856;SDS011;57147;53.582;10.112;2022-11-15T14:30:56;9.55;;;5.80;;
69856;SDS011;57147;53.582;10.112;2022-11-15T14:35:59;12.07;;;6.40;;
69856;SDS011;57147;53.582;10.112;2022-11-15T14:41:04;9.75;;;5.85;;
69856;SDS011;57147;53.582;10.112;2022-11-15T14:46:07;10.82;;;6.38;;
69856;SDS011;57147;53.582;10.112;2022-11-15T14:51:11;9.70;;;6.28;;
69856;SDS011;57147;53.582;10.112;2022-11-15T14:56:13;9.88;;;6.63;;
69856;SDS011;57147;53.582;10.112;2022-11-15T15:01:19;11.05;;;5.90;;
69856;SDS011;57147;53.582;10.112;2022-11-15T15:06:22;8.50;;;5.47;;
69856;SDS011;57147;53.582;10.112;2022-11-15T15:11:25;9.02;;;5.45;;
69856;SDS011;57147;53.582;10.112;2022-11-15T15:16:30;26.88;;;18.25;;
69856;SDS011;57147;53.582;10.112;2022-11-15T15:21:31;10.82;;;7.15;;
69856;SDS011;57147;53.582;10.112;2022-11-15T15:26:32;9.90;;;6.88;;
69856;SDS011;57147;53.582;10.112;2022-11-15T15:31:35;12.15;;;7.60;;
69856;SDS011;57147;53.582;10.112;2022-11-15T15:36:36;13.02;;;8.43;;
69856;SDS011;57147;53.582;10.112;2022-11-15T15:41:36;11.65;;;7.60;;
69856;SDS011;57147;53.582;10.112;2022-11-15T15:46:40;12.30;;;7.50;;
69856;SDS011;57147;53.582;10.112;2022-11-15T15:51:40;13.70;;;7.47;;
69856;SDS011;57147;53.582;10.112;2022-11-15T15:56:41;11.98;;;7.35;;
69856;SDS011;57147;53.582;10.112;2022-11-15T16:01:44;11.05;;;7.88;;
69856;SDS011;57147;53.582;10.112;2022-11-15T16:06:45;12.23;;;8.88;;
69856;SDS011;57147;53.582;10.112;2022-11-15T16:11:45;11.63;;;7.22;;
69856;SDS011;57147;53.582;10.112;2022-11-15T16:16:49;12.95;;;8.73;;
69856;SDS011;57147;53.582;10.112;2022-11-15T16:21:50;11.85;;;7.82;;
69856;SDS011;57147;53.582;10.112;2022-11-15T16:26:50;14.05;;;8.00;;
69856;SDS011;57147;53.582;10.112;2022-11-15T16:31:54;13.40;;;7.35;;
69856;SDS011;57147;53.582;10.112;2022-11-15T16:36:56;12.60;;;6.75;;
69856;SDS011;57147;53.582;10.112;2022-11-15T16:41:56;12.73;;;7.97;;
69856;SDS011;57147;53.582;10.112;2022-11-15T16:47:00;12.43;;;8.20;;
69856;SDS011;57147;53.582;10.112;2022-11-15T16:52:01;10.10;;;7.13;;
69856;SDS011;57147;53.582;10.112;2022-11-15T16:57:02;13.13;;;7.80;;
69856;SDS011;57147;53.582;10.112;2022-11-15T17:02:07;10.95;;;7.38;;
69856;SDS011;57147;53.582;10.112;2022-11-15T17:07:10;13.35;;;8.95;;
69856;SDS011;57147;53.582;10.112;2022-11-15T17:12:11;19.10;;;11.02;;
69856;SDS011;57147;53.582;10.112;2022-11-15T17:17:14;14.95;;;9.82;;
69856;SDS011;57147;53.582;10.112;2022-11-15T17:22:15;14.32;;;8.30;;
69856;SDS011;57147;53.582;10.112;2022-11-15T17:27:15;13.80;;;7.75;;
69856;SDS011;57147;53.582;10.112;2022-11-15T17:32:19;13.80;;;8.20;;
69856;SDS011;57147;53.582;10.112;2022-11-15T17:37:19;12.40;;;7.57;;
69856;SDS011;57147;53.582;10.112;2022-11-15T17:42:20;13.15;;;7.70;;
69856;SDS011;57147;53.582;10.112;2022-11-15T17:47:23;12.65;;;8.13;;
69856;SDS011;57147;53.582;10.112;2022-11-15T17:52:24;11.60;;;7.53;;
69856;SDS011;57147;53.582;10.112;2022-11-15T17:57:24;13.25;;;8.05;;
69856;SDS011;57147;53.582;10.112;2022-11-15T18:02:27;13.98;;;9.23;;
69856;SDS011;57147;53.582;10.112;2022-11-15T18:07:29;17.10;;;10.60;;
69856;SDS011;57147;53.582;10.112;2022-11-15T18:12:30;13.30;;;9.05;;
69856;SDS011;57147;53.582;10.112;2022-11-15T18:17:33;11.88;;;8.23;;
69856;SDS011;57147;53.582;10.112;2022-11-15T18:22:33;12.98;;;8.18;;
69856;SDS011;57147;53.582;10.112;2022-11-15T18:27:34;11.57;;;8.80;;
69856;SDS011;57147;53.582;10.112;2022-11-15T18:32:37;11.75;;;7.10;;
69856;SDS011;57147;53.582;10.112;2022-11-15T18:37:38;9.98;;;6.60;;
69856;SDS011;57147;53.582;10.112;2022-11-15T18:42:38;11.90;;;6.65;;
69856;SDS011;57147;53.582;10.112;2022-11-15T18:47:42;10.90;;;6.95;;
69856;SDS011;57147;53.582;10.112;2022-11-15T18:52:42;11.82;;;6.60;;
69856;SDS011;57147;53.582;10.112;2022-11-15T18:57:43;10.25;;;6.43;;
69856;SDS011;57147;53.582;10.112;2022-11-15T19:02:46;12.75;;;7.35;;
69856;SDS011;57147;53.582;10.112;2022-11-15T19:07:46;9.70;;;6.20;;
69856;SDS011;57147;53.582;10.112;2022-11-15T19:12:47;10.82;;;7.35;;
69856;SDS011;57147;53.582;10.112;2022-11-15T19:17:50;10.93;;;6.88;;
69856;SDS011;57147;53.582;10.112;2022-11-15T19:22:51;12.40;;;8.88;;
69856;SDS011;57147;53.582;10.112;2022-11-15T19:27:51;14.68;;;8.73;;
69856;SDS011;57147;53.582;10.112;2022-11-15T19:32:55;12.05;;;7.45;;
69856;SDS011;57147;53.582;10.112;2022-11-15T19:37:55;10.55;;;7.28;;
69856;SDS011;57147;53.582;10.112;2022-11-15T19:42:56;16.95;;;10.45;;
69856;SDS011;57147;53.582;10.112;2022-11-15T19:47:59;15.38;;;9.20;;
69856;SDS011;57147;53.582;10.112;2022-11-15T19:52:59;15.43;;;10.25;;
69856;SDS011;57147;53.582;10.112;2022-11-15T19:58:00;13.75;;;8.48;;
69856;SDS011;57147;53.582;10.112;2022-11-15T20:03:04;15.20;;;9.02;;
69856;SDS011;57147;53.582;10.112;2022-11-15T20:08:04;16.40;;;11.00;;
69856;SDS011;57147;53.582;10.112;2022-11-15T20:13:05;15.02;;;9.57;;
69856;SDS011;57147;53.582;10.112;2022-11-15T20:18:08;15.73;;;9.10;;
69856;SDS011;57147;53.582;10.112;2022-11-15T20:23:09;18.70;;;11.70;;
69856;SDS011;57147;53.582;10.112;2022-11-15T20:28:09;16.13;;;9.88;;
69856;SDS011;57147;53.582;10.112;2022-11-15T20:33:16;14.80;;;9.10;;
69856;SDS011;57147;53.582;10.112;2022-11-15T20:38:17;15.10;;;10.15;;
69856;SDS011;57147;53.582;10.112;2022-11-15T20:43:18;14.63;;;9.15;;
69856;SDS011;57147;53.582;10.112;2022-11-15T20:48:21;15.52;;;10.40;;
69856;SDS011;57147;53.582;10.112;2022-11-15T20:53:22;17.02;;;11.13;;
69856;SDS011;57147;53.582;10.112;2022-11-15T20:58:22;15.32;;;10.25;;
69856;SDS011;57147;53.582;10.112;2022-11-15T21:03:25;17.60;;;11.07;;
69856;SDS011;57147;53.582;10.112;2022-11-15T21:08:26;17.73;;;11.07;;
69856;SDS011;57147;53.582;10.112;2022-11-15T21:13:28;16.25;;;10.55;;
69856;SDS011;57147;53.582;10.112;2022-11-15T21:18:32;16.83;;;10.68;;
69856;SDS011;57147;53.582;10.112;2022-11-15T21:23:32;17.02;;;10.73;;
69856;SDS011;57147;53.582;10.112;2022-11-15T21:28:33;15.93;;;10.55;;
69856;SDS011;57147;53.582;10.112;2022-11-15T21:33:36;15.85;;;10.00;;
69856;SDS011;57147;53.582;10.112;2022-11-15T21:38:37;16.25;;;10.38;;
69856;SDS011;57147;53.582;10.112;2022-11-15T21:43:37;18.88;;;10.57;;
69856;SDS011;57147;53.582;10.112;2022-11-15T21:48:40;17.20;;;10.20;;
69856;SDS011;57147;53.582;10.112;2022-11-15T21:53:41;18.17;;;11.30;;
69856;SDS011;57147;53.582;10.112;2022-11-15T21:58:42;16.55;;;11.50;;
69856;SDS011;57147;53.582;10.112;2022-11-15T22:03:45;18.30;;;11.85;;
69856;SDS011;57147;53.582;10.112;2022-11-15T22:08:46;18.95;;;12.00;;
69856;SDS011;57147;53.582;10.112;2022-11-15T22:13:46;19.30;;;12.02;;
69856;SDS011;57147;53.582;10.112;2022-11-15T22:18:50;17.58;;;11.98;;
69856;SDS011;57147;53.582;10.112;2022-11-15T22:23:50;17.70;;;11.60;;
69856;SDS011;57147;53.582;10.112;2022-11-15T22:28:51;17.88;;;11.73;;
69856;SDS011;57147;53.582;10.112;2022-11-15T22:33:54;19.27;;;11.05;;
69856;SDS011;57147;53.582;10.112;2022-11-15T22:38:55;18.55;;;10.57;;
69856;SDS011;57147;53.582;10.112;2022-11-15T22:43:56;18.48;;;12.35;;
69856;SDS011;57147;53.582;10.112;2022-11-15T22:48:59;18.95;;;11.98;;
69856;SDS011;57147;53.582;10.112;2022-11-15T22:54:00;17.40;;;11.65;;
69856;SDS011;57147;53.582;10.112;2022-11-15T22:59:00;18.33;;;11.52;;
69856;SDS011;57147;53.582;10.112;2022-11-15T23:04:04;22.27;;;11.43;;
69856;SDS011;57147;53.582;10.112;2022-11-15T23:09:05;19.05;;;12.70;;
69856;SDS011;57147;53.582;10.112;2022-11-15T23:14:05;19.98;;;12.23;;
69856;SDS011;57147;53.582;10.112;2022-11-15T23:19:09;19.73;;;12.38;;
69856;SDS011;57147;53.582;10.112;2022-11-15T23:24:11;18.52;;;12.10;;
69856;SDS011;57147;53.582;10.112;2022-11-15T23:29:14;18.63;;;12.32;;
69856;SDS011;57147;53.582;10.112;2022-11-15T23:34:18;17.08;;;11.93;;
69856;SDS011;57147;53.582;10.112;2022-11-15T23:39:19;20.13;;;12.35;;
69856;SDS011;57147;53.582;10.112;2022-11-15T23:44:20;20.67;;;13.98;;
69856;SDS011;57147;53.582;10.112;2022-11-15T23:49:23;19.45;;;12.80;;
69856;SDS011;57147;53.582;10.112;2022-11-15T23:54:24;21.35;;;13.50;;
69856;SDS011;57147;53.582;10.112;2022-11-15T23:59:24;30.02;;;16.63;;
